Have a Safe July 4th! 

Flight Track Log - Related Links

Times and Time Zones

All times are in EDT time to prevent confusion due to time zone crossing. See the SWA864 flight status page for this flight to view local times or setup timezone preferences in your user account.

Time Position Orientation Groundspeed Altitude Reporting Facility
EDT Latitude Longitude Course Direction KTS MPH feet Rate Location/Type
Sat 07:28:08 AM 42.7339 -73.8081 227° Southwest 129 148 1,200  Level Boston Center
Sat 07:29:15 AM 42.7086 -73.8444 227° Southwest 203 234 3,700 2,457 Climbing Boston Center
Sat 07:30:15 AM 42.7686 -73.8825 335° Northwest 229 264 6,400 3,200 Climbing Boston Center
Sat 07:31:15 AM 42.8325 -73.9322 330° Northwest 247 284 10,100 3,650 Climbing Boston Center
Sat 07:32:15 AM 42.9047 -73.9819 333° Northwest 272 313 13,700 3,350 Climbing Boston Center
Sat 07:33:15 AM 42.9769 -74.0322 333° Northwest 302 348 16,800 2,500 Climbing Boston Center
Sat 07:34:15 AM 43.0064 -74.1550 288° West 308 354 18,700 2,350 Climbing Boston Center
Sat 07:35:15 AM 43.0189 -74.3003 277° West 342 394 21,500 2,800 Climbing Boston Center
Sat 07:36:15 AM 43.0308 -74.4425 277° West 363 418 24,300 2,600 Climbing Boston Center
Sat 07:37:15 AM 43.0431 -74.5850 277° West 382 440 26,700 2,200 Climbing Boston Center
Sat 07:38:15 AM 43.0525 -74.7331 275° West 387 445 28,700 2,000 Climbing Boston Center
Sat 07:39:15 AM 43.0661 -74.8842 277° West 398 458 30,700 2,150 Climbing Boston Center
Sat 07:40:15 AM 43.0775 -75.0356 276° West 403 464 33,000 2,100 Climbing Boston Center
Sat 07:41:15 AM 43.0886 -75.1836 276° West 403 464 34,900 1,600 Climbing Boston Center
Sat 07:42:15 AM 43.0975 -75.3292 275° West 403 464 36,200 1,100 Climbing Boston Center
Sat 07:43:15 AM 43.1083 -75.4664 276° West 403 464 37,100 900 Climbing Boston Center
Sat 07:44:15 AM 43.1189 -75.6203 275° West 409 471 38,000 1,050 Climbing Boston Center
Sat 07:45:15 AM 43.1311 -75.7775 276° West 414 476 39,200 1,000 Climbing Boston Center
Sat 07:46:15 AM 43.1431 -75.9292 276° West 409 471 40,000 241 Climbing Boston Center
Sat 07:48:34 AM 43.1392 -76.2867 269° West 391 450 40,000  Level Cleveland Center
Sat 07:49:34 AM 43.0961 -76.4203 246° West 391 450 40,000  Level Cleveland Center
Sat 07:50:34 AM 43.0531 -76.5569 247° West 391 450 40,000  Level Cleveland Center
Sat 07:51:34 AM 43.0075 -76.6875 245° Southwest 391 450 40,000  Level Cleveland Center
Sat 07:52:34 AM 42.9639 -76.8208 246° West 391 450 40,000  Level Cleveland Center
Sat 07:53:34 AM 42.9200 -76.9539 246° West 386 444 40,000  Level Cleveland Center
Sat 07:54:34 AM 42.8764 -77.0897 246° West 386 444 40,000  Level Cleveland Center
Sat 07:55:34 AM 42.8325 -77.2253 246° West 386 444 40,000  Level Cleveland Center
Sat 07:56:34 AM 42.7903 -77.3578 247° West 386 444 40,000  Level Cleveland Center
Sat 07:57:34 AM 42.7461 -77.4900 246° West 386 444 40,000  Level Cleveland Center
Sat 07:58:34 AM 42.7092 -77.5992 245° Southwest 386 444 40,000  Level Cleveland Center
Sat 07:59:34 AM 42.6592 -77.7597 247° West 386 444 40,000  Level Cleveland Center
Sat 08:00:34 AM 42.6161 -77.8803 244° Southwest 386 444 40,000  Level Cleveland Center
Sat 08:01:34 AM 42.5711 -78.0119 245° Southwest 391 450 40,000  Level Cleveland Center
Sat 08:02:34 AM 42.5281 -78.1406 246° West 391 450 40,000  Level Cleveland Center
Sat 08:03:34 AM 42.4831 -78.2744 246° West 386 444 40,000  Level Cleveland Center
Sat 08:04:34 AM 42.4375 -78.4056 245° Southwest 386 444 40,000  Level Cleveland Center
Sat 08:05:34 AM 42.3922 -78.5394 245° Southwest 386 444 40,000  Level Cleveland Center
Sat 08:06:34 AM 42.3464 -78.6728 245° Southwest 386 444 40,000  Level Cleveland Center
Sat 08:07:34 AM 42.3006 -78.8033 245° Southwest 386 444 40,000 -150 Level Cleveland Center
Sat 08:08:34 AM 42.2506 -78.9478 245° Southwest 386 444 39,700 -650 Descending Cleveland Center
Sat 08:09:34 AM 42.2025 -79.0808 244° Southwest 386 444 38,700 -850 Descending Cleveland Center
Sat 08:10:34 AM 42.1625 -79.2217 249° West 397 457 38,000 -350 Descending Cleveland Center
Sat 08:11:34 AM 42.1264 -79.3625 251° West 403 464 38,000  Level Cleveland Center
Sat 08:12:34 AM 42.0906 -79.5058 251° West 403 464 38,000  Level Cleveland Center
Sat 08:13:34 AM 42.0542 -79.6464 251° West 403 464 38,000  Level Cleveland Center
Sat 08:14:34 AM 42.0156 -79.7867 250° West 409 471 38,000  Level Cleveland Center
Sat 08:15:34 AM 41.9811 -79.9239 251° West 403 464 38,000  Level Cleveland Center
Sat 08:16:34 AM 41.9461 -80.0472 249° West 398 458 38,000  Level Cleveland Center
Sat 08:17:34 AM 41.9092 -80.1814 250° West 391 450 38,000  Level Cleveland Center
Sat 08:18:34 AM 41.8700 -80.3322 251° West 391 450 38,000  Level Cleveland Center
Sat 08:19:34 AM 41.8328 -80.4689 250° West 391 450 38,000  Level Cleveland Center
Sat 08:20:34 AM 41.7953 -80.6053 250° West 391 450 38,000  Level Cleveland Center
Sat 08:21:34 AM 41.7578 -80.7417 250° West 391 450 38,000  Level Cleveland Center
Sat 08:22:34 AM 41.7200 -80.8781 250° West 391 450 38,000  Level Cleveland Center
Sat 08:23:34 AM 41.6839 -81.0114 250° West 391 450 38,000  Level Cleveland Center
Sat 08:24:34 AM 41.6458 -81.1472 249° West 391 450 38,000  Level Cleveland Center
Sat 08:25:34 AM 41.6075 -81.2803 249° West 391 450 38,000  Level Cleveland Center
Sat 08:26:34 AM 41.5692 -81.4186 250° West 391 450 38,000  Level Cleveland Center
Sat 08:27:34 AM 41.5306 -81.5539 249° West 391 450 38,000  Level Cleveland Center
Sat 08:28:34 AM 41.4939 -81.6892 250° West 391 450 38,000  Level Cleveland Center
Sat 08:29:34 AM 41.4550 -81.8300 250° West 391 450 38,000  Level Cleveland Center
Sat 08:30:34 AM 41.4158 -81.9647 249° West 396 456 38,000  Level Cleveland Center
Sat 08:31:34 AM 41.3811 -82.0831 249° West 396 456 38,000  Level Cleveland Center
Sat 08:32:34 AM 41.3622 -82.2431 261° West 390 449 38,000  Level Cleveland Center
Sat 08:33:34 AM 41.3686 -82.3733 274° West 393 452 38,000  Level Cleveland Center
Sat 08:34:34 AM 41.3764 -82.5231 274° West 398 458 38,000  Level Cleveland Center
Sat 08:35:34 AM 41.3864 -82.6644 275° West 398 458 38,000  Level Cleveland Center
Sat 08:36:34 AM 41.3942 -82.8086 274° West 398 458 38,000  Level Cleveland Center
Sat 08:37:34 AM 41.4017 -82.9528 274° West 398 458 38,000  Level Cleveland Center
Sat 08:38:34 AM 41.4092 -83.0997 274° West 398 458 38,000  Level Cleveland Center
Sat 08:39:34 AM 41.4178 -83.2636 274° West 403 464 38,000  Level Cleveland Center
Sat 08:40:34 AM 41.4231 -83.3967 273° West 403 464 38,000 -300 Level Cleveland Center
Sat 08:41:34 AM 41.4294 -83.5494 273° West 403 464 37,400 -800 Descending Cleveland Center
Sat 08:42:34 AM 41.4381 -83.7022 274° West 403 464 36,400 -700 Descending Cleveland Center
Sat 08:43:34 AM 41.4464 -83.8522 274° West 403 464 36,000 -200 Descending Cleveland Center
Sat 08:45:34 AM 41.4606 -84.1589 274° West 404 465 35,800 -497 Descending Chicago Center
Sat 08:46:35 AM 41.4667 -84.3089 273° West 406 467 34,500 -1,820 Descending Chicago Center
Sat 08:47:36 AM 41.4731 -84.4544 273° West 395 455 32,100 -2,213 Descending Chicago Center
Sat 08:48:37 AM 41.4786 -84.6028 273° West 400 460 30,000 -1,024 Descending Chicago Center
Sat 08:49:39 AM 41.4839 -84.7547 273° West 409 471 30,000  Level Chicago Center
Sat 08:50:40 AM 41.4906 -84.9092 273° West 416 479 30,000  Level Chicago Center
Sat 08:51:41 AM 41.4956 -85.0628 273° West 417 480 30,000 -689 Level Chicago Center
Sat 08:52:42 AM 41.5011 -85.2169 273° West 414 476 28,600 -2,049 Descending Chicago Center
Sat 08:53:44 AM 41.5047 -85.3658 272° West 399 459 25,800 -2,293 Descending Chicago Center
Sat 08:54:45 AM 41.5100 -85.5106 273° West 383 441 23,900 -1,377 Descending Chicago Center
Sat 08:55:46 AM 41.5147 -85.6608 272° West 398 458 23,000 -927 Descending Chicago Center
Sat 08:56:48 AM 41.5183 -85.8094 272° West 400 460 22,000 -1,902 Descending Chicago Center
Sat 08:57:49 AM 41.5231 -85.9756 272° West 373 429 19,100 -2,656 Descending Chicago Center
Sat 08:58:50 AM 41.5253 -86.1083 271° West 360 414 16,600 -2,488 Descending Chicago Center
Sat 08:59:52 AM 41.5231 -86.2389 269° West 354 407 14,000 -2,468 Descending Chicago Center
Sat 09:00:54 AM 41.5236 -86.3625 270° West 338 389 11,500 -1,756 Descending Chicago Center
Sat 09:01:55 AM 41.5231 -86.4825 270° West 328 377 10,400 -732 Descending Chicago Center
Sat 09:02:57 AM 41.5217 -86.6083 269° West 340 391 10,000 -195 Descending Chicago Center
Sat 09:03:58 AM 41.5200 -86.7369 269° West 342 394 10,000  Level Chicago Center
Sat 09:05:00 AM 41.5192 -86.8586 270° West 329 379 10,000 -439 Level Chicago Center
Sat 09:06:01 AM 41.5181 -86.9561 269° West 269 310 9,100 -1,180 Descending Chicago Center
Sat 09:07:02 AM 41.5314 -87.0689 279° West 268 308 7,600 -1,220 Descending Chicago Center
Sat 09:08:04 AM 41.5531 -87.1581 288° West 258 297 6,600 -951 Descending Chicago Center
Sat 09:08:24 AM 41.5667 -87.1833 306° West 255 293 6,300 -811 Descending Chicago TRACON
Sat 09:09:18 AM 41.5833 -87.2667 285° West 251 289 5,600 -895 Descending Chicago TRACON
Sat 09:10:18 AM 41.6000 -87.3500 285° West 251 289 4,600 -1,036 Descending Chicago TRACON
Sat 09:11:08 AM 41.6219 -87.4189 293° West 251 289 3,700 -857 Descending Chicago Center
Sat 09:12:10 AM 41.6436 -87.5053 289° West 250 288 3,000 -585 Descending Chicago Center
Sat 09:13:11 AM 41.6697 -87.5919 292° West 230 265 2,500 -273 Descending Chicago Center
Sat 09:14:00 AM 41.7000 -87.6333 314° West 193 222 2,500 -275 Level Chicago TRACON
Sat 09:15:00 AM 41.7333 -87.6833 312° West 159 183 2,000 -579 Descending Chicago TRACON
Sat 09:15:54 AM 41.7500 -87.7167 304° West 128 147 1,400 -667 Descending Chicago TRACON

Login

Don't have an account? Register now (free) for customized features, flight alerts, and more!